Aérodrome :
LOGIN :

S'inscrire | Disclaimer

   EN    FR    IT 

 










Légende :    VFR   VFR Marginal   IFR   IFR Intensif   IFR Très Intensif
Visi : 
Plafond : 
>= 8 km
>= 3000ft
5 à 8 km
1000 à 3000 ft
1500m à 5 km
500 à 1000 ft
800 à 1500m
200 à 500 ft
< 800m
< 200 ft
Symboles :   Orages  Brouillard  Fortes neiges  Fortes précipitations  Vent > 20 kt
SIGMETs :   Divers  Orages  Givrage  Turbulence  Onde Orograph.  Cendres Volcan.







- Altitude de l'aérodrome : 36 ft
- Code IATA : LTQ
- Voir les cartes d'approche


LFAT - Le Touquet

DERNIER METAR :
  • 230200Z AUTO 26008KT 220V290 9999 OVC004 11/10 Q1015

METARs EXPIRÉS :
  • 230130Z AUTO 25008KT 220V280 9999 OVC004 11/10 Q1015
  • 230100Z AUTO 24009KT 220V280 9999 OVC005 11/10 Q1015
  • 230030Z AUTO 23009KT 9999 OVC005 11/10 Q1015
  • 230000Z AUTO 24011KT 9999 OVC006 11/10 Q1015
  • 222330Z AUTO 26006KT 220V310 9999 BKN008 OVC048 11/09 Q1014
  • 222300Z AUTO 25007KT 9999 FEW009 BKN060 BKN070 10/09 Q1014

Prévision TAF périmée.
ATIS : +33 3 21 06 62 84
Pas de NOTAMs connus pour ce terrain.



MET'MAP, la Météo Aéronautique d'un coup d'oeil ! - Copyright ORBIFLY Décembre 2007 - Disclaimer

ORBIFLY MET'MAP TEAM :

Programmation & Développement : Alexandra Zaïnal
Conception & Développement : Baudouin d'Aumeries
Co-Programmation & Développement : Marc-Olivier Méhu
Soutien technique & logistique : Manuel Goepfert

Contact : metmap@orbifly.com




SOURCES & CREDITS :

   NOAA